Dobrodošli na spletni strani vremenske postaje Senovo. Vse informacije so informativnega značaja, saj vremenska postaja ni del državne mreže meteoroloških postaj. AKTUALNIH OBVESTIL NI.


Sneg/Led Od: 22-02-2018 00:00 Do: 23-02-2018 23:59 Opozorilo za: Sneg/Led Stopnja: Rumena info button
Veter Od: 22-02-2018 00:00 Do: 23:59 Opozorilo za: Veter Stopnja: Rumena info button

Pogled proti Armezu več informacij Pogled proti Armezu


Lisca več informacij Lisca


Radar strel več informacij blitzortung!


opozorilo za sneg/led več informacij rain snow radar


Obiščite še:

Template documentation
and downloads

And another site



Weather Underground, zgodovina - Tekstovno

Dnevni povzetek za December 12, 2017 Enote:  Metrično    Angleško   Obe
« Predhodni Dan
Naslednji Dan »
Dnevni Tedenski Mesečni Letni Po meri
  Višja: Nižja: Povprečje:
Temperatura: -17.8 °C -14 °C -11.6 °C
Točka rosišča: -17.8 °C -16 °C -14.8 °C
Vlažnost: Humidity % 45 % 70 %
Hitrost vetra: 0 km/h 0 km/h 6.1 km/h
Sunki vetra: 0 km/h - -
Veter:- - WSW
Zračni tlak: 0 hPa 33751.6 hPa -
Padavine: 160.02 mm    
Historical Graphs
 
 
Tabelarni podarki za December 12, 2017
Čas Temperatura Točka rosišča Zračni tlak Veter Hitrost vetra Sunki vetra Vlažnost Intenziteta padavin (urna)
-17.8 °C -17.8 °C 0 hPa Calm     Humidity % 0 mm
00:03 -9.6 °C -15.2 °C 33788.9 hPa WSW 13.2 km/h 36 km/h 51 % 0 mm
00:08 -9.6 °C -15.2 °C 33788.9 hPa SW 8.5 km/h 22.5 km/h 51 % 0 mm
00:13 -9.7 °C -15.2 °C 33751.6 hPa SW 9.7 km/h 22.5 km/h 51 % 0 mm
00:28 -9.8 °C -15.3 °C 33788.9 hPa SW 11.4 km/h 20.9 km/h 51 % 0 mm
00:33 -9.8 °C -15.3 °C 33788.9 hPa SW 10.3 km/h 20.9 km/h 51 % 0 mm
00:38 -9.8 °C -15.4 °C 33788.9 hPa SW 8.9 km/h 20.3 km/h 51 % 0 mm
00:48 -9.9 °C -15.3 °C 33751.6 hPa SW 7.7 km/h 19.6 km/h 52 % 0 mm
00:53 -9.9 °C -15.3 °C 33751.6 hPa SW 11.6 km/h 22 km/h 52 % 0 mm
00:58 -9.8 °C -15.4 °C 33788.9 hPa SW 13.2 km/h 22.5 km/h 51 % 0 mm
01:03 -9.9 °C -15.4 °C 33788.9 hPa SW 12.2 km/h 22.5 km/h 51 % 0 mm
01:08 -9.8 °C -15.4 °C 33788.9 hPa WSW 16.3 km/h 27.7 km/h 51 % 0 mm
01:13 -9.8 °C -15.4 °C 33788.9 hPa WSW 17.9 km/h 32.3 km/h 51 % 0 mm
01:23 -9.9 °C -15.6 °C 33788.9 hPa WSW 17.9 km/h 27.2 km/h 50 % 0 mm
01:28 -9.8 °C -15.6 °C 33788.9 hPa West 19.2 km/h 33.2 km/h 50 % 0 mm
01:43 -9.9 °C -15.5 °C 33788.9 hPa WSW 17.9 km/h 29.5 km/h 51 % 0 mm
01:48 -9.9 °C -15.5 °C 33788.9 hPa WSW 17.4 km/h 33.6 km/h 51 % 0 mm
01:53 -9.9 °C -15.5 °C 33788.9 hPa WSW 17.9 km/h 33.6 km/h 51 % 0 mm
01:58 -10.1 °C -15.4 °C 33822.8 hPa West 13.2 km/h 26.2 km/h 52 % 0 mm
02:03 -10.1 °C -15.4 °C 33822.8 hPa West 13.7 km/h 25.4 km/h 52 % 0 mm
02:08 -10.1 °C -15.4 °C 33822.8 hPa WSW 14.8 km/h 25.4 km/h 52 % 0 mm
02:13 -10.1 °C -15.4 °C 33822.8 hPa WSW 14.2 km/h 25.4 km/h 52 % 0 mm
02:20 -10 °C -15.4 °C 33822.8 hPa WSW 15.8 km/h 31.4 km/h 52 % 0 mm
02:35 -10.1 °C -15.3 °C 33822.8 hPa West 14 km/h 22 km/h 53 % 0 mm
02:40 -10.3 °C -15.5 °C 33822.8 hPa West 15.6 km/h 25.4 km/h 53 % 0 mm
02:45 -10.2 °C -15.4 °C 33822.8 hPa West 15 km/h 25.4 km/h 53 % 0 mm
02:55 -10.2 °C -15.3 °C 33822.8 hPa WSW 15 km/h 27.2 km/h 54 % 0 mm
03:06 -10.3 °C -15.4 °C 33822.8 hPa West 11.4 km/h 22.5 km/h 54 % 0 mm
03:11 -10.6 °C -15.5 °C 33822.8 hPa West 9.7 km/h 22.5 km/h 55 % 0 mm
03:16 -10.9 °C -15.8 °C 33856.6 hPa WSW 6.9 km/h 19.6 km/h 55 % 0 mm
03:21 -10.9 °C -15.7 °C 33856.6 hPa SSW 6 km/h 12.2 km/h 56 % 0 mm
03:26 -10.3 °C -15.1 °C 33856.6 hPa SW 14 km/h 54.4 km/h 56 % 0 mm
03:31 -10 °C -14.8 °C 33822.8 hPa SW 17.9 km/h 54.4 km/h 56 % 0 mm
03:41 -9.7 °C -14.8 °C 33822.8 hPa SSW 11.6 km/h 27.2 km/h 54 % 0 mm
03:46 -9.6 °C -14.8 °C 33822.8 hPa SSW 14.2 km/h 26.7 km/h 53 % 0 mm
03:51 -9.5 °C -14.8 °C 33822.8 hPa SW 14.8 km/h 26.7 km/h 53 % 0 mm
04:01 -9.3 °C -15.1 °C 33856.6 hPa SW 14 km/h 31.9 km/h 50 % 0 mm
04:06 -9.2 °C -15.2 °C 33856.6 hPa WSW 14.2 km/h 31.9 km/h 49 % 0 mm
04:11 -9.2 °C -15.2 °C 33856.6 hPa SW 14.8 km/h 45.1 km/h 49 % 0 mm
04:16 -9.2 °C -15.3 °C 33822.8 hPa SW 15.6 km/h 45.1 km/h 48 % 0 mm
04:26 -9.1 °C -15.4 °C 33822.8 hPa WSW 9.8 km/h 25.4 km/h 47 % 0 mm
04:31 -9.1 °C -15.3 °C 33822.8 hPa WSW 9.7 km/h 27.2 km/h 47 % 0 mm
04:36 -9.1 °C -15.5 °C 33822.8 hPa WSW 10.1 km/h 27.2 km/h 46 % 0 mm
04:46 -9.1 °C -15.6 °C 33822.8 hPa WSW 11.9 km/h 44.1 km/h 46 % 0 mm
04:51 -9 °C -15.4 °C 33822.8 hPa WSW 15.6 km/h 44.1 km/h 46 % 0 mm
04:56 -9 °C -15.6 °C 33822.8 hPa WSW 16.1 km/h 34.1 km/h 45 % 0 mm
05:01 -9 °C -15.6 °C 33822.8 hPa WSW 14.5 km/h 24.8 km/h 45 % 0 mm
05:06 -9 °C -15.6 °C 33822.8 hPa WSW 15.3 km/h 38.3 km/h 45 % 0 mm
05:16 -9 °C -15.6 °C 33822.8 hPa West 11.1 km/h 32.3 km/h 45 % 0 mm
05:21 -9 °C -15.6 °C 33822.8 hPa WSW 10.3 km/h 27.2 km/h 45 % 0 mm
05:26 -9 °C -15.6 °C 33822.8 hPa WSW 8.9 km/h 19.2 km/h 45 % 0 mm
05:41 -9.1 °C -15.7 °C 33822.8 hPa SW 6.9 km/h 19.2 km/h 45 % 0 mm
05:46 -9.2 °C -15.8 °C 33788.9 hPa SSW 5 km/h 11.1 km/h 45 % 0 mm
05:51 -9.2 °C -15.8 °C 33788.9 hPa South 4.3 km/h 14 km/h 45 % 0 mm
05:56 -9.2 °C -15.8 °C 33788.9 hPa South 5.1 km/h 14 km/h 45 % 0 mm
06:01 -9.3 °C -15.9 °C 33822.8 hPa SSE 6.3 km/h 14 km/h 45 % 0 mm
06:06 -9.4 °C -15.9 °C 33822.8 hPa SSE 7.7 km/h 10.3 km/h 46 % 0 mm
06:16 -9.6 °C -16 °C 33822.8 hPa SE 9.3 km/h 19.2 km/h 46 % 0 mm
06:26 -9.7 °C -15.9 °C 33822.8 hPa South 9.3 km/h 19.6 km/h 47 % 0 mm
06:31 -9.7 °C -15.8 °C 33856.6 hPa South 10.3 km/h 17.9 km/h 48 % 0 mm
06:36 -9.7 °C -15.8 °C 33856.6 hPa South 8.5 km/h 16.9 km/h 48 % 0 mm
06:41 -9.8 °C -15.8 °C 33856.6 hPa SSW 6.9 km/h 16.9 km/h 48 % 0 mm
06:46 -9.9 °C -15.8 °C 33856.6 hPa SW 6 km/h 11.6 km/h 49 % 0 mm
06:51 -10.2 °C -15.9 °C 33856.6 hPa WSW 3.7 km/h 8 km/h 50 % 0 mm
06:56 -10.3 °C -15.9 °C 33856.6 hPa NNW 3.9 km/h 9.8 km/h 50 % 0 mm
07:01 -10.2 °C -15.7 °C 33890.5 hPa NNE 6 km/h 19.2 km/h 51 % 0 mm
07:06 -9.9 °C -15.4 °C 33890.5 hPa SSW 7.7 km/h 19.2 km/h 51 % 0 mm
07:16 -9.3 °C -15.1 °C 33890.5 hPa WSW 10.1 km/h 24.3 km/h 50 % 0 mm
07:21 -9.1 °C -15.1 °C 33890.5 hPa West 13.5 km/h 25.4 km/h 49 % 0 mm
07:36 -8.9 °C -15.3 °C 33856.6 hPa SW 12.2 km/h 26.7 km/h 46 % 0 mm
07:41 -8.8 °C -15.3 °C 33856.6 hPa WSW 14 km/h 28.5 km/h 46 % 0 mm
07:46 -8.8 °C -15.2 °C 33890.5 hPa WSW 17.1 km/h 39.4 km/h 46 % 0 mm
07:51 -8.8 °C -15.2 °C 33890.5 hPa WSW 16.6 km/h 39.4 km/h 46 % 0 mm
08:01 -8.8 °C -15.3 °C 33924.3 hPa West 14 km/h 33.2 km/h 46 % 0 mm
08:06 -8.8 °C -15.3 °C 33924.3 hPa West 9 km/h 22.5 km/h 46 % 0 mm
08:16 -8.8 °C -15.3 °C 33924.3 hPa WSW 14.8 km/h 27.2 km/h 46 % 0 mm
08:21 -8.8 °C -15.3 °C 33924.3 hPa WSW 13.2 km/h 28.5 km/h 46 % 0 mm
08:26 -8.8 °C -15.3 °C 33924.3 hPa SW 10.1 km/h 28.5 km/h 46 % 0 mm
08:31 -8.8 °C -15.3 °C 33958.2 hPa South 9 km/h 32.3 km/h 46 % 0 mm
08:36 -8.9 °C -15.2 °C 33958.2 hPa SSW 10.3 km/h 32.3 km/h 47 % 0 mm
08:41 -8.9 °C -15.2 °C 33958.2 hPa SW 13.7 km/h 39.4 km/h 47 % 0 mm
08:51 -9 °C -15.1 °C 33958.2 hPa West 16.3 km/h 45.1 km/h 48 % 0 mm
08:56 -9.5 °C -15.2 °C 33958.2 hPa West 20.4 km/h 52.8 km/h 50 % 0 mm
09:01 -9.9 °C -15.3 °C 33992.1 hPa West 18.7 km/h 52.8 km/h 52 % 0 mm
09:06 -10.2 °C -15.3 °C 33992.1 hPa West 12.9 km/h 41.7 km/h 54 % 0 mm
09:16 -10.8 °C -15.2 °C 34029.3 hPa WSW 8.5 km/h 22.5 km/h 59 % 7.62 mm
09:21 -11.1 °C -15.1 °C 34029.3 hPa WSW 9.8 km/h 27.7 km/h 61 % 7.62 mm
09:31 -11.4 °C -14.9 °C 34029.3 hPa WNW 9.8 km/h 26.7 km/h 65 % 20.32 mm
09:41 -11.7 °C -14.8 °C 34029.3 hPa SW 8.2 km/h 17.4 km/h 68 % 25.4 mm
09:46 -11.7 °C -14.8 °C 33992.1 hPa SSW 8.2 km/h 17.4 km/h 69 % 25.4 mm
09:56 -11.8 °C -14.6 °C 33992.1 hPa South 6.3 km/h 15.6 km/h 71 % 25.4 mm
10:06 -11.8 °C -14.6 °C 34029.3 hPa WSW 8.5 km/h 22.5 km/h 72 % 33.02 mm
10:16 -11.9 °C -14.5 °C 34029.3 hPa WSW 8 km/h 22 km/h 73 % 25.4 mm
10:36 -12.1 °C -14.4 °C 34097 hPa SSW 7.6 km/h 14.5 km/h 75 % 25.4 mm
10:41 -12.1 °C -14.4 °C 34097 hPa SSW 7.2 km/h 11.1 km/h 75 % 25.4 mm
10:46 -12.1 °C -14.3 °C 34097 hPa SW 8.2 km/h 11.1 km/h 76 % 25.4 mm
10:51 -12.1 °C -14.3 °C 34097 hPa SSW 8 km/h 11.1 km/h 76 % 38.1 mm
10:56 -12.2 °C -14.3 °C 34097 hPa SSW 7.7 km/h 12.7 km/h 77 % 45.72 mm
11:01 -12.2 °C -14.3 °C 34097 hPa SSW 7.7 km/h 15 km/h 77 % 50.8 mm
11:06 -12.2 °C -14.2 °C 34097 hPa SSW 6 km/h 15 km/h 78 % 50.8 mm
11:17 -12.2 °C -14.2 °C 34097 hPa South 4.7 km/h 10.3 km/h 79 % 63.5 mm
11:22 -12.2 °C -14.1 °C 34097 hPa South 3.7 km/h 8 km/h 80 % 58.42 mm
11:42 -12.2 °C -13.8 °C 34063.2 hPa SSE 6.9 km/h 12.7 km/h 82 % 45.72 mm
11:47 -12.2 °C -13.8 °C 34063.2 hPa SSE 4.3 km/h 12.7 km/h 82 % 50.8 mm
11:52 -12.2 °C -13.8 °C 34063.2 hPa SSE 1.6 km/h 9.8 km/h 82 % 33.02 mm
11:57 -12.2 °C -13.8 °C 34063.2 hPa South 1.3 km/h 9.8 km/h 83 % 33.02 mm
12:02 -12.2 °C -13.7 °C 34097 hPa SSE 2.1 km/h 7.6 km/h 83 % 38.1 mm
12:07 -12.2 °C -13.7 °C 34097 hPa SE 1.3 km/h 5.1 km/h 83 % 33.02 mm
12:12 -12.2 °C -13.6 °C 34097 hPa SE 1 km/h 6.4 km/h 84 % 33.02 mm
12:17 -12.2 °C -13.6 °C 34063.2 hPa SE 2.9 km/h 7.6 km/h 84 % 33.02 mm
12:27 -12.1 °C -13.4 °C 34063.2 hPa WSW 4.2 km/h 11.1 km/h 85 % 33.02 mm
12:32 -12.1 °C -13.4 °C 34097 hPa WNW 2.1 km/h 9.8 km/h 85 % 33.02 mm
12:37 -12.1 °C -13.4 °C 34097 hPa SSW 3.1 km/h 12.7 km/h 85 % 33.02 mm
12:42 -12 °C -13.3 °C 34097 hPa SSW 5.1 km/h 20.3 km/h 85 % 33.02 mm
12:47 -11.9 °C -13.3 °C 34097 hPa SW 5.1 km/h 20.3 km/h 85 % 25.4 mm
12:57 -11.8 °C -13.1 °C 34097 hPa SW 9 km/h 26.2 km/h 86 % 25.4 mm
13:07 -11.8 °C -13.1 °C 34097 hPa West 7.7 km/h 23.8 km/h 85 % 20.32 mm
13:12 -11.8 °C -13.1 °C 34097 hPa WNW 6.4 km/h 18.7 km/h 85 % 12.7 mm
13:17 -11.8 °C -13.1 °C 34097 hPa West 8 km/h 20.9 km/h 85 % 12.7 mm
13:27 -11.8 °C -13.1 °C 34097 hPa West 8.2 km/h 19.6 km/h 85 % 7.62 mm
13:32 -11.8 °C -13.1 °C 34097 hPa WSW 7.6 km/h 22 km/h 85 % 12.7 mm
13:37 -11.8 °C -13.2 °C 34097 hPa SW 6.8 km/h 22 km/h 84 % 7.62 mm
13:42 -11.8 °C -13.2 °C 34097 hPa SW 7.2 km/h 16.3 km/h 84 % 7.62 mm
13:47 -11.8 °C -13.3 °C 34130.9 hPa WSW 8 km/h 16.3 km/h 83 % 7.62 mm
13:52 -11.8 °C -13.3 °C 34130.9 hPa WSW 8.2 km/h 17.4 km/h 83 % 7.62 mm
13:57 -11.8 °C -13.4 °C 34130.9 hPa West 6.3 km/h 17.4 km/h 82 % 7.62 mm
14:02 -11.8 °C -13.4 °C 34097 hPa SSW 6.3 km/h 16.9 km/h 82 % 7.62 mm
14:17 -11.8 °C -13.7 °C 34130.9 hPa West 3.9 km/h 14 km/h 80 % 7.62 mm
14:27 -11.8 °C -13.8 °C 34130.9 hPa WNW 3.4 km/h 9.8 km/h 79 % 7.62 mm
14:32 -11.8 °C -13.8 °C 34130.9 hPa NW 3.4 km/h 9.8 km/h 79 % 0 mm
14:37 -11.8 °C -13.8 °C 34130.9 hPa South 3.1 km/h 9.8 km/h 78 % 0 mm
14:42 -11.8 °C -14 °C 34130.9 hPa SSW 4.2 km/h 14.5 km/h 77 % 0 mm
14:47 -11.8 °C -14 °C 34130.9 hPa WSW 4.7 km/h 14.5 km/h 77 % 0 mm
14:52 -11.8 °C -14.1 °C 34130.9 hPa WSW 4.2 km/h 14 km/h 76 % 0 mm
14:57 -11.9 °C -14.1 °C 34130.9 hPa SSW 2.3 km/h 9.8 km/h 76 % 0 mm
15:02 -11.8 °C -14.1 °C 34130.9 hPa SSW 4.2 km/h 10.3 km/h 76 % 0 mm
15:12 -11.9 °C -14.3 °C 34130.9 hPa North 1.3 km/h 6.9 km/h 75 % 0 mm
15:17 -11.9 °C -14.3 °C 34130.9 hPa SSW 0.5 km/h 6.4 km/h 75 % 0 mm
15:22 -11.9 °C -14.3 °C 34130.9 hPa Calm   3.4 km/h 75 % 0 mm
15:27 -12 °C -14.3 °C 34130.9 hPa Calm   3.4 km/h 75 % 0 mm
15:32 -12.1 °C -14.4 °C 34164.7 hPa Calm     75 % 0 mm
15:37 -12.1 °C -14.4 °C 34164.7 hPa NNW 1.6 km/h 10.3 km/h 75 % 0 mm
15:42 -12.2 °C -14.5 °C 34164.7 hPa NNW 2.1 km/h 10.3 km/h 75 % 0 mm
15:47 -12.2 °C -14.5 °C 34164.7 hPa WNW 0.5 km/h 5.6 km/h 75 % 0 mm
15:52 -12.2 °C -14.6 °C 34164.7 hPa NW 0.3 km/h 8 km/h 75 % 0 mm
15:57 -12.3 °C -14.6 °C 34164.7 hPa NNW 0.5 km/h 8 km/h 76 % 0 mm
16:02 -12.4 °C -14.6 °C 34164.7 hPa NNW 0.5 km/h 7.6 km/h 76 % 0 mm
16:07 -12.4 °C -14.7 °C 34164.7 hPa NNW 0.3 km/h 4.2 km/h 76 % 0 mm
16:12 -12.5 °C -14.6 °C 34164.7 hPa Calm   2.3 km/h 77 % 0 mm
16:17 -12.6 °C -14.8 °C 34164.7 hPa WNW 0.3 km/h 5.1 km/h 77 % 0 mm
16:22 -12.7 °C -14.7 °C 34164.7 hPa WNW 0.3 km/h 5.1 km/h 78 % 0 mm
16:42 -12.9 °C -14.7 °C 34130.9 hPa Calm     80 % 0 mm
16:47 -12.9 °C -14.8 °C 34164.7 hPa Calm     80 % 0 mm
16:48 -12.9 °C -14.8 °C 34164.7 hPa Calm     80 % 0 mm
16:53 -13 °C -14.7 °C 34164.7 hPa Calm     81 % 0 mm
17:08 -13.1 °C -14.7 °C 34164.7 hPa Calm     82 % 0 mm
17:23 -13.2 °C -14.7 °C 34164.7 hPa Calm     83 % 0 mm
17:28 -13.2 °C -14.7 °C 34164.7 hPa Calm     83 % 0 mm
17:33 -13.3 °C -14.8 °C 34164.7 hPa Calm     83 % 0 mm
17:38 -13.3 °C -14.8 °C 34164.7 hPa Calm     83 % 0 mm
17:43 -13.3 °C -14.7 °C 34198.6 hPa Calm     84 % 0 mm
17:48 -13.3 °C -14.8 °C 34198.6 hPa Calm     84 % 0 mm
17:53 -13.3 °C -14.8 °C 34198.6 hPa Calm     84 % 0 mm
17:58 -13.3 °C -14.7 °C 34198.6 hPa Calm     85 % 0 mm
18:03 -13.3 °C -14.7 °C 34198.6 hPa Calm     85 % 0 mm
18:13 -13.4 °C -14.6 °C 34198.6 hPa Calm     86 % 0 mm
18:18 -13.4 °C -14.6 °C 34198.6 hPa Calm     86 % 0 mm
18:28 -13.4 °C -14.7 °C 34235.8 hPa Calm     86 % 0 mm
18:33 -13.4 °C -14.7 °C 34235.8 hPa Calm     86 % 0 mm
18:43 -13.4 °C -14.6 °C 34235.8 hPa Calm     87 % 0 mm
18:48 -13.5 °C -14.6 °C 34235.8 hPa Calm     87 % 0 mm
18:53 -13.5 °C -14.6 °C 34235.8 hPa Calm     87 % 0 mm
18:58 -13.5 °C -14.6 °C 34235.8 hPa Calm     87 % 0 mm
19:13 -13.6 °C -14.6 °C 34235.8 hPa Calm     88 % 0 mm
19:18 -13.6 °C -14.6 °C 34235.8 hPa Calm     88 % 0 mm
19:23 -13.6 °C -14.6 °C 34235.8 hPa Calm     88 % 0 mm
19:28 -13.6 °C -14.6 °C 34235.8 hPa Calm     88 % 0 mm
19:33 -13.6 °C -14.6 °C 34235.8 hPa Calm     89 % 0 mm
19:38 -13.6 °C -14.6 °C 34235.8 hPa Calm     89 % 0 mm
19:43 -13.7 °C -14.6 °C 34235.8 hPa Calm     89 % 0 mm
19:48 -13.7 °C -14.6 °C 34198.6 hPa Calm     89 % 0 mm
19:58 -13.7 °C -14.6 °C 34198.6 hPa Calm   2.9 km/h 89 % 0 mm
20:03 -13.6 °C -14.5 °C 34235.8 hPa Calm   2.9 km/h 90 % 0 mm
20:08 -13.6 °C -14.5 °C 34235.8 hPa Calm   2.9 km/h 90 % 0 mm
20:13 -13.6 °C -14.4 °C 34235.8 hPa North 1 km/h 3.4 km/h 90 % 0 mm
20:18 -13.6 °C -14.4 °C 34235.8 hPa NNW 2.1 km/h 3.4 km/h 90 % 0 mm
20:23 -13.6 °C -14.5 °C 34235.8 hPa NNW 2.3 km/h 3.4 km/h 90 % 0 mm
20:33 -13.7 °C -14.5 °C 34235.8 hPa NNW 0.5 km/h 3.4 km/h 90 % 0 mm
20:51 -13.7 °C -14.5 °C 34235.8 hPa Calm     91 % 0 mm
20:56 -13.7 °C -14.5 °C 34235.8 hPa Calm     91 % 0 mm
21:06 -13.8 °C -14.6 °C 34235.8 hPa Calm     91 % 0 mm
21:11 -13.8 °C -14.6 °C 34235.8 hPa Calm     91 % 0 mm
21:16 -13.8 °C -14.6 °C 34269.7 hPa Calm     91 % 0 mm
21:21 -13.8 °C -14.6 °C 34269.7 hPa Calm     91 % 0 mm
21:36 -13.9 °C -14.7 °C 34269.7 hPa Calm     91 % 0 mm
21:46 -13.9 °C -14.7 °C 34269.7 hPa Calm     91 % 0 mm
21:51 -13.9 °C -14.6 °C 34269.7 hPa Calm     92 % 0 mm
22:01 -13.9 °C -14.6 °C 34269.7 hPa Calm     92 % 0 mm
22:06 -13.9 °C -14.6 °C 34269.7 hPa Calm     92 % 0 mm
22:11 -14 °C -14.7 °C 34269.7 hPa Calm     92 % 0 mm
22:16 -14 °C -14.7 °C 34303.6 hPa Calm     92 % 0 mm
22:26 -14 °C -14.7 °C 34303.6 hPa Calm     92 % 0 mm
22:31 -14 °C -14.7 °C 34303.6 hPa Calm     92 % 0 mm
22:36 -14 °C -14.7 °C 34303.6 hPa Calm     92 % 0 mm
22:41 -14 °C -14.7 °C 34303.6 hPa Calm     92 % 7.62 mm
22:51 -14 °C -14.6 °C 34303.6 hPa SW 0.8 km/h 5.1 km/h 93 % 7.62 mm
23:01 -14 °C -14.6 °C 34303.6 hPa Calm     93 % 7.62 mm
23:07 -14 °C -14.6 °C 34303.6 hPa Calm     93 % 7.62 mm
23:12 -14 °C -14.6 °C 34303.6 hPa Calm     93 % 7.62 mm
23:17 -14 °C -14.6 °C 34303.6 hPa Calm     93 % 7.62 mm
23:22 -14 °C -14.6 °C 34303.6 hPa Calm     93 % 20.32 mm
23:27 -14 °C -14.6 °C 34303.6 hPa Calm     93 % 20.32 mm
23:32 -14 °C -14.6 °C 34303.6 hPa Calm     93 % 20.32 mm
23:37 -14 °C -14.6 °C 34303.6 hPa Calm     93 % 20.32 mm
23:47 -14 °C -14.6 °C 34303.6 hPa NW 1.3 km/h 5.6 km/h 93 % 7.62 mm
23:52 -13.9 °C -14.6 °C 34303.6 hPa NW 1.8 km/h 3.4 km/h 93 % 7.62 mm
Vremenska postaja Senovo
Podatki zbrani iz Weather Underground - 2.5 mb

Script developed by  Jim McMurry - jmcmurry@mwt.net Adapted for the template by  Wim van der Kuil - Leuven-Template.eu

Vremenski podatki so objavljeni na:

European Weather Network

WeatherCloud

Weather Underground

AWEKAS

HAMweather, WeatherForYou, PWS Weather

MapView

Geostik

Slovenia weather network

Oprema, ki se uporablja:

Vremenski program
Cumulus

Vremenski server
Asus

Cumulus

Asus